Portada
METAR-TAF:

METAR-TAF

Aeroports :

El Borma, Tunísia

latitud: 31-41N, longitud: 009-10E, altitud: 258 m

Observació

L'informe es va fer fa 30 minuts, a les 17:00 UTC
Vent 6 kt del Oest/Nord-Oest
Temperatura 23°C
Humitat 14%
Pressió 1014 hPa
Visibilitat 10 km o més
sense núvols per sota de 1500 mi sense presència de cumulonimbus.

METAR: DTTR 261700Z 29006KT CAVOK 23/M06 Q1014

Hora: 18:30 (17:30 UTC)

Pronòstic

L'informe es va fer fa 2 hores i 30 minuts, a les 15:00 UTC
Pronòstic vàlid del 26 a les 16 UTC al 27 a les 01 UTC
Vent 4 kt del Nord-Oest
Visibilitat 10 km o més
sense núvols per sota de 1500 mi sense presència de cumulonimbus.

TAF: DTTR 261500Z 2616/2701 31004KT CAVOK

Observacions i pronòstics meteorològics de més de 4000 aeroports (METAR i TAF).

Les estacions disponibles són els punts grocs i vermells al mapa.

Posi el ratolí al punt desitjat per veure el nom de l'estació.

Feu clic per veure les observacions i els pronòstics meteorològics.

Per canviar el mapa: feu clic els botons verds amb una creu de color negre per apropar; al botó verd amb un guió per allunyar la imatge; o en les fletxes verdes per a mapes adjacents.


METAR-TAF: